Marshall Army Air Field
KFRI : rendu visible

Aérodrome :











RETROUVEZ-NOUS SUR...

 
LOGIN :

S'inscrire | Disclaimer

   EN    FR    IT 

 









Légende :    VFR   VFR Marginal   IFR   IFR Intensif   IFR Très Intensif
Visi : 
Plafond : 
>= 8 km
>= 3000ft
5 à 8 km
1000 à 3000 ft
1500m à 5 km
500 à 1000 ft
800 à 1500m
200 à 500 ft
< 800m
< 200 ft
Symboles :   Orages  Brouillard  Fortes neiges  Fortes précipitations  Vent > 20 kt






- Altitude de l'aérodrome : 1065 ft


KFRI - Marshall Army Air Field

DERNIER METAR :
  • 311956Z AUTO 15014G19KT 10SM SCT190 28/15 A3014 RMK AO2 SLP197 T02760152

METARs EXPIRÉS :
  • 311856Z AUTO 17009G19KT 10SM CLR 27/16 A3017 RMK AO2 SLP207 T02720162
  • 311756Z AUTO 15013KT 10SM CLR 26/15 A3018 RMK AO2 SLP212 57011

TAF TAF KFRI
Valide du 31 à 13h jusqu'au 01 à 19h UTC


311300Z 3113/0119 11009KT 9999 SKC QNH3016INS
BECMG 3115/3116 15012G18KT 9999 FEW100 510022 QNH3018INS
BECMG 0100/0101 17012KT 9999 FEW100 510012 QNH3008INS
BECMG 0113/0114 20015G25KT 9999 SKC 510012 QNH3001INS TX28/3119Z TN17/3113Z
FIR KZKC / Amérique du Nord



MET'MAP, la Météo Aéronautique d'un coup d'oeil ! - Copyright ORBIFLY Décembre 2007 - Disclaimer

ORBIFLY MET'MAP TEAM :

Programmation & Développement : Alexandra Zaïnal
Sur une idée originale de : Baudouin d'Aumeries
Assistance à la programmation : Marc-Olivier Méhu
Soutien technique & logistique : Manuel Goepfert

Contact : metmap@orbifly.com




SOURCES & CREDITS :

   NOAA       Earth
Advisory